createdAt,value
2018-08-17T00:00:29.673Z,17.44
2018-08-17T00:02:58.289Z,17.01
2018-08-17T00:05:27.058Z,16.80
2018-08-17T00:07:55.752Z,17.14
2018-08-17T00:10:24.362Z,16.84
2018-08-17T00:12:53.105Z,16.75
2018-08-17T00:15:21.876Z,16.97
2018-08-17T00:17:50.461Z,16.25
2018-08-17T00:20:19.070Z,16.93
2018-08-17T00:22:47.616Z,17.07
2018-08-17T00:25:16.224Z,16.86
2018-08-17T00:27:44.818Z,16.83
2018-08-17T00:30:13.429Z,16.97
2018-08-17T00:32:41.987Z,16.90
2018-08-17T00:35:10.585Z,16.85
2018-08-17T00:37:39.170Z,16.95
2018-08-17T00:40:08.526Z,16.57
2018-08-17T00:42:37.235Z,16.85
2018-08-17T00:45:06.468Z,17.03
2018-08-17T00:47:35.052Z,17.29
2018-08-17T00:50:05.075Z,17.19
2018-08-17T00:52:33.644Z,17.12
2018-08-17T00:55:02.177Z,17.14
2018-08-17T00:57:30.761Z,16.86
2018-08-17T00:59:59.309Z,16.62
2018-08-17T01:02:27.939Z,16.30
2018-08-17T01:04:56.474Z,16.04
2018-08-17T01:07:25.104Z,16.36
2018-08-17T01:09:53.677Z,16.34
2018-08-17T01:12:22.385Z,16.47
2018-08-17T01:14:50.973Z,16.94
2018-08-17T01:17:19.612Z,16.97
2018-08-17T01:19:48.160Z,16.70
2018-08-17T01:22:17.423Z,16.56
2018-08-17T01:24:45.972Z,16.67
2018-08-17T01:27:14.567Z,16.60
2018-08-17T01:29:43.126Z,16.55
2018-08-17T01:32:11.735Z,16.61
2018-08-17T01:34:40.282Z,16.67
2018-08-17T01:37:08.881Z,16.63
2018-08-17T01:39:37.401Z,16.66
2018-08-17T01:42:06.053Z,16.52
2018-08-17T01:44:34.576Z,16.37
2018-08-17T01:47:03.152Z,16.49
2018-08-17T01:49:32.329Z,16.42
2018-08-17T01:52:00.972Z,16.42
2018-08-17T01:54:29.480Z,16.51
2018-08-17T01:56:58.045Z,16.36
2018-08-17T01:59:26.622Z,16.54
2018-08-17T02:01:56.059Z,16.75
2018-08-17T02:04:24.587Z,16.36
2018-08-17T02:06:53.189Z,16.39
2018-08-17T02:09:21.773Z,16.50
2018-08-17T02:11:50.328Z,16.48
2018-08-17T02:14:18.844Z,16.58
2018-08-17T02:16:47.432Z,16.48
2018-08-17T02:19:15.977Z,16.32
2018-08-17T02:21:44.585Z,16.39
2018-08-17T02:24:13.104Z,16.51
2018-08-17T02:26:41.628Z,16.56
2018-08-17T02:29:11.393Z,16.45
2018-08-17T02:31:39.948Z,16.53
2018-08-17T02:34:08.952Z,16.53
2018-08-17T02:36:37.469Z,16.47
2018-08-17T02:39:07.384Z,16.47
2018-08-17T02:41:35.904Z,16.54
2018-08-17T02:44:04.532Z,16.32
2018-08-17T02:46:33.049Z,16.41
2018-08-17T02:49:01.639Z,16.56
2018-08-17T02:51:30.158Z,16.53
2018-08-17T02:53:58.705Z,16.42
2018-08-17T02:56:27.675Z,16.44
2018-08-17T02:58:56.273Z,16.45
2018-08-17T03:01:24.793Z,16.48
2018-08-17T03:03:53.360Z,15.61
2018-08-17T03:06:21.881Z,15.70
2018-08-17T03:08:50.440Z,16.04
2018-08-17T03:11:18.968Z,15.81
2018-08-17T03:13:47.521Z,15.74
2018-08-17T03:16:16.068Z,15.66
2018-08-17T03:18:44.621Z,15.56
2018-08-17T03:21:13.137Z,16.04
2018-08-17T03:23:41.688Z,16.05
2018-08-17T03:26:10.768Z,15.71
2018-08-17T03:28:39.310Z,15.76
2018-08-17T03:31:08.220Z,15.83
2018-08-17T03:33:36.779Z,15.81
2018-08-17T03:36:05.302Z,15.78
2018-08-17T03:38:33.857Z,15.88
2018-08-17T03:41:02.393Z,15.65
2018-08-17T03:43:31.001Z,15.46
2018-08-17T03:45:59.517Z,15.61
2018-08-17T03:48:28.078Z,15.69
2018-08-17T03:50:56.620Z,15.67
2018-08-17T03:53:31.563Z,15.76
2018-08-17T03:56:00.068Z,15.75
2018-08-17T03:58:28.615Z,15.57
2018-08-17T04:00:57.180Z,15.35
2018-08-17T04:03:25.806Z,15.20
2018-08-17T04:05:54.341Z,15.33
2018-08-17T04:08:22.889Z,15.50
2018-08-17T04:10:51.470Z,15.68
2018-08-17T04:13:20.157Z,15.48
2018-08-17T04:15:49.085Z,15.39
2018-08-17T04:18:17.912Z,15.04
2018-08-17T04:20:46.464Z,15.15
2018-08-17T04:23:14.982Z,15.41
2018-08-17T04:25:44.085Z,15.44
2018-08-17T04:28:12.612Z,15.28
2018-08-17T04:30:41.208Z,15.67
2018-08-17T04:33:10.892Z,16.10
2018-08-17T04:35:42.176Z,15.88
2018-08-17T04:38:10.892Z,14.90
2018-08-17T04:40:39.525Z,15.72
2018-08-17T04:43:08.765Z,16.06
2018-08-17T04:45:37.705Z,15.73
2018-08-17T04:48:06.244Z,15.40
2018-08-17T04:50:41.557Z,15.75
2018-08-17T04:53:10.064Z,15.87
2018-08-17T04:55:38.608Z,15.82
2018-08-17T04:58:07.140Z,15.58
2018-08-17T05:00:35.692Z,15.83
2018-08-17T05:03:04.251Z,16.03
2018-08-17T05:05:32.809Z,16.01
2018-08-17T05:08:01.333Z,15.88
2018-08-17T05:10:29.953Z,15.93
2018-08-17T05:12:58.460Z,16.15
2018-08-17T05:15:28.404Z,16.32
2018-08-17T05:17:56.917Z,16.14
2018-08-17T05:20:25.489Z,16.33
2018-08-17T05:22:54.131Z,16.38
2018-08-17T05:25:22.901Z,15.65
2018-08-17T05:27:55.097Z,15.60
2018-08-17T05:30:24.231Z,15.98
2018-08-17T05:32:52.760Z,15.65
2018-08-17T05:35:24.177Z,15.74
2018-08-17T05:37:52.705Z,16.17
2018-08-17T05:40:21.293Z,16.34
2018-08-17T05:42:49.828Z,15.95
2018-08-17T05:45:18.397Z,15.81
2018-08-17T05:47:46.912Z,15.95
2018-08-17T05:50:15.784Z,16.20
2018-08-17T05:52:44.337Z,16.45
2018-08-17T05:55:15.919Z,16.55
2018-08-17T05:57:44.464Z,17.06
2018-08-17T06:00:13.061Z,17.28
2018-08-17T06:02:42.000Z,17.32
2018-08-17T06:05:17.105Z,17.06
2018-08-17T06:07:52.221Z,17.13
2018-08-17T06:10:27.011Z,17.60
2018-08-17T06:13:02.077Z,17.74
2018-08-17T06:15:37.183Z,17.63
2018-08-17T06:18:12.639Z,17.55
2018-08-17T06:20:46.592Z,17.89
2018-08-17T06:23:22.297Z,17.89
2018-08-17T06:25:57.287Z,18.00
2018-08-17T06:28:26.040Z,17.99
2018-08-17T06:30:54.656Z,18.19
2018-08-17T06:33:23.247Z,18.33
2018-08-17T06:35:51.820Z,18.44
2018-08-17T06:38:20.376Z,18.47
2018-08-17T06:40:48.949Z,18.42
2018-08-17T06:43:17.518Z,18.63
2018-08-17T06:45:47.012Z,18.77
2018-08-17T06:48:15.569Z,18.89
2018-08-17T06:50:44.257Z,18.89
2018-08-17T06:53:12.740Z,18.98
2018-08-17T06:55:41.316Z,19.12
2018-08-17T06:58:09.860Z,19.23
2018-08-17T07:00:38.441Z,19.30
2018-08-17T07:03:08.410Z,19.34
2018-08-17T07:05:37.656Z,19.36
2018-08-17T07:08:06.210Z,19.55
2018-08-17T07:10:34.754Z,19.73
2018-08-17T07:13:03.340Z,19.98
2018-08-17T07:15:31.877Z,20.16
2018-08-17T07:18:00.441Z,20.21
2018-08-17T07:20:29.049Z,20.34
2018-08-17T07:22:57.621Z,20.34
2018-08-17T07:25:26.231Z,20.51
2018-08-17T07:27:54.860Z,20.55
2018-08-17T07:30:23.454Z,20.57
2018-08-17T07:32:52.020Z,20.55
2018-08-17T07:35:20.621Z,20.63
2018-08-17T07:37:49.524Z,20.79
2018-08-17T07:40:18.061Z,20.95
2018-08-17T07:42:47.396Z,21.12
2018-08-17T07:45:15.961Z,21.35
2018-08-17T07:47:44.921Z,21.26
2018-08-17T07:50:18.581Z,21.09
2018-08-17T07:52:47.573Z,21.14
2018-08-17T07:55:16.108Z,21.30
2018-08-17T07:57:44.705Z,21.49
2018-08-17T08:00:14.260Z,21.64
2018-08-17T08:02:42.840Z,21.80
2018-08-17T08:05:12.137Z,21.81
2018-08-17T08:07:40.712Z,21.75
2018-08-17T08:10:10.525Z,21.89
2018-08-17T08:12:47.064Z,21.92
2018-08-17T08:15:15.781Z,21.99
2018-08-17T08:17:44.340Z,22.11
2018-08-17T08:20:24.036Z,22.09
2018-08-17T08:23:03.681Z,22.12
2018-08-17T08:25:32.200Z,22.02
2018-08-17T08:28:00.759Z,22.20
2018-08-17T08:30:29.281Z,22.20
2018-08-17T08:32:57.839Z,22.43
2018-08-17T08:35:26.384Z,22.33
2018-08-17T08:37:54.978Z,22.08
2018-08-17T08:40:23.504Z,22.12
2018-08-17T08:42:52.153Z,22.22
2018-08-17T08:45:21.654Z,22.00
2018-08-17T08:47:50.272Z,21.90
2018-08-17T08:50:18.844Z,22.04
2018-08-17T08:52:47.406Z,22.20
2018-08-17T08:55:15.941Z,22.47
2018-08-17T08:57:44.515Z,22.61
2018-08-17T09:00:13.065Z,22.61
2018-08-17T09:02:41.625Z,22.62
2018-08-17T09:05:10.485Z,22.71
2018-08-17T09:07:39.376Z,22.78
2018-08-17T09:10:16.063Z,22.79
2018-08-17T09:12:45.757Z,23.03
2018-08-17T09:15:19.472Z,22.87
2018-08-17T09:17:48.044Z,22.91
2018-08-17T09:20:17.256Z,23.25
2018-08-17T09:22:45.830Z,23.37
2018-08-17T09:25:14.373Z,23.45
2018-08-17T09:27:42.932Z,23.50
2018-08-17T09:30:14.421Z,23.50
2018-08-17T09:32:42.928Z,23.18
2018-08-17T09:35:12.621Z,23.03
2018-08-17T09:37:41.244Z,23.22
2018-08-17T09:40:10.609Z,23.29
2018-08-17T09:42:39.367Z,23.55
2018-08-17T09:45:10.077Z,23.76
2018-08-17T09:47:38.599Z,23.96
2018-08-17T09:50:09.617Z,24.21
2018-08-17T09:52:38.337Z,23.93
2018-08-17T09:55:06.993Z,24.02
2018-08-17T09:57:35.595Z,24.20
2018-08-17T10:00:05.092Z,24.22
2018-08-17T10:02:38.781Z,24.27
2018-08-17T10:05:12.705Z,24.12
2018-08-17T10:07:46.565Z,24.34
2018-08-17T10:10:21.317Z,24.16
2018-08-17T10:12:51.076Z,24.85
2018-08-17T10:15:19.656Z,25.00
2018-08-17T10:17:48.448Z,25.30
2018-08-17T10:20:19.507Z,25.42
2018-08-17T10:22:48.096Z,25.35
2018-08-17T10:25:23.365Z,25.22
2018-08-17T10:27:53.221Z,25.52
2018-08-17T10:30:22.654Z,25.58
2018-08-17T10:33:01.629Z,25.43
2018-08-17T10:35:35.404Z,25.73
2018-08-17T10:38:06.092Z,25.60
2018-08-17T10:40:34.679Z,25.25
2018-08-17T10:43:04.765Z,25.32
2018-08-17T10:45:33.707Z,25.35
2018-08-17T10:48:02.281Z,25.59
2018-08-17T10:50:32.205Z,25.62
2018-08-17T10:53:02.731Z,25.75
2018-08-17T10:55:43.176Z,25.97
2018-08-17T10:58:13.480Z,25.72
2018-08-17T11:00:42.385Z,26.15
2018-08-17T11:03:11.019Z,26.60
2018-08-17T11:05:39.743Z,26.10
2018-08-17T11:08:08.381Z,26.43
2018-08-17T11:10:37.005Z,26.24
2018-08-17T11:13:05.555Z,26.24
2018-08-17T11:15:34.141Z,26.24
2018-08-17T11:18:02.706Z,26.09
2018-08-17T11:20:31.292Z,26.02
2018-08-17T11:23:02.079Z,26.68
2018-08-17T11:25:32.375Z,26.31
2018-08-17T11:28:01.573Z,26.68
2018-08-17T11:30:32.226Z,26.75
2018-08-17T11:33:00.862Z,26.88
2018-08-17T11:35:30.129Z,26.83
2018-08-17T11:37:58.729Z,26.99
2018-08-17T11:40:27.361Z,26.80
2018-08-17T11:42:57.043Z,27.18
2018-08-17T11:45:27.072Z,27.01
2018-08-17T11:48:01.061Z,26.49
2018-08-17T11:50:38.734Z,26.64
2018-08-17T11:53:10.726Z,26.01
2018-08-17T11:55:39.816Z,26.12
2018-08-17T11:58:16.709Z,26.29
2018-08-17T12:00:49.289Z,25.96
2018-08-17T12:03:24.390Z,25.81
2018-08-17T12:06:00.265Z,26.08
2018-08-17T12:08:30.584Z,26.04
2018-08-17T12:11:05.025Z,25.79
2018-08-17T12:13:38.712Z,25.75
2018-08-17T12:16:15.666Z,25.49
2018-08-17T12:18:48.466Z,25.72
2018-08-17T12:21:19.567Z,25.61
2018-08-17T12:23:50.623Z,25.54
2018-08-17T12:26:26.031Z,25.69
2018-08-17T12:28:59.692Z,25.82
2018-08-17T12:31:33.876Z,26.42
2018-08-17T12:34:02.982Z,26.64
2018-08-17T12:36:40.404Z,26.20
2018-08-17T12:39:26.586Z,26.42
2018-08-17T12:42:03.700Z,26.79
2018-08-17T12:44:44.565Z,26.55
2018-08-17T12:47:20.657Z,26.57
2018-08-17T12:49:50.651Z,26.46
2018-08-17T12:52:31.244Z,26.81
2018-08-17T12:55:00.794Z,26.42
2018-08-17T12:57:34.867Z,26.60
2018-08-17T13:00:03.898Z,26.16
2018-08-17T13:02:33.178Z,26.49
2018-08-17T13:05:05.039Z,26.50
2018-08-17T13:07:34.765Z,26.77
2018-08-17T13:10:05.173Z,26.83
2018-08-17T13:12:34.902Z,26.84
2018-08-17T13:15:06.688Z,27.01
2018-08-17T13:17:40.454Z,26.87
2018-08-17T13:20:11.036Z,26.67
2018-08-17T13:22:40.447Z,27.22
2018-08-17T13:25:09.599Z,27.11
2018-08-17T13:27:38.468Z,27.01
2018-08-17T13:30:10.605Z,27.25
2018-08-17T13:32:40.915Z,27.28
2018-08-17T13:35:10.987Z,27.53
2018-08-17T13:37:39.749Z,27.43
2018-08-17T13:40:11.484Z,27.16
2018-08-17T13:42:44.665Z,26.96
2018-08-17T13:45:14.017Z,26.80
2018-08-17T13:47:42.581Z,27.05
2018-08-17T13:50:11.224Z,27.41
2018-08-17T13:52:44.717Z,27.33
2018-08-17T13:55:14.021Z,27.46
2018-08-17T13:57:42.565Z,27.21
2018-08-17T14:00:12.597Z,27.71
2018-08-17T14:02:43.205Z,27.49
2018-08-17T14:05:12.379Z,28.24
2018-08-17T14:07:41.629Z,27.72
2018-08-17T14:10:11.730Z,27.74
2018-08-17T14:12:42.585Z,27.34
2018-08-17T14:15:12.356Z,27.36
2018-08-17T14:17:41.357Z,27.17
2018-08-17T14:20:13.906Z,27.24
2018-08-17T14:22:43.009Z,26.94
2018-08-17T14:25:11.997Z,27.01
2018-08-17T14:27:41.692Z,27.46
2018-08-17T14:30:18.911Z,27.46
2018-08-17T14:32:47.483Z,27.17
2018-08-17T14:35:16.059Z,26.99
2018-08-17T14:37:44.610Z,26.95
2018-08-17T14:40:13.170Z,26.99
2018-08-17T14:42:41.777Z,26.94
2018-08-17T14:45:11.105Z,26.91
2018-08-17T14:47:39.781Z,26.83
2018-08-17T14:50:10.104Z,26.77
2018-08-17T14:52:38.771Z,26.67
2018-08-17T14:55:07.682Z,26.92
2018-08-17T14:57:36.268Z,26.69
2018-08-17T15:00:05.946Z,27.13
2018-08-17T15:02:34.502Z,27.17
2018-08-17T15:05:03.069Z,27.35
2018-08-17T15:07:32.099Z,27.68
2018-08-17T15:10:00.637Z,27.44
2018-08-17T15:12:29.184Z,27.21
2018-08-17T15:14:57.780Z,27.32
2018-08-17T15:17:26.360Z,26.97
2018-08-17T15:19:55.757Z,26.76
2018-08-17T15:22:24.645Z,26.95
2018-08-17T15:24:53.231Z,26.62
2018-08-17T15:27:24.190Z,26.42
2018-08-17T15:29:55.952Z,26.37
2018-08-17T15:32:24.523Z,26.24
2018-08-17T15:34:53.141Z,26.47
2018-08-17T15:37:21.700Z,26.59
2018-08-17T15:39:50.277Z,26.89
2018-08-17T15:42:18.826Z,26.42
2018-08-17T15:44:47.429Z,26.51
2018-08-17T15:47:15.984Z,25.95
2018-08-17T15:49:55.124Z,26.04
2018-08-17T15:52:23.684Z,25.95
2018-08-17T15:54:52.264Z,26.24
2018-08-17T15:57:20.808Z,26.07
2018-08-17T15:59:49.424Z,26.27
2018-08-17T16:02:17.965Z,25.80
2018-08-17T16:04:46.580Z,25.74
2018-08-17T16:07:15.105Z,25.59
2018-08-17T16:09:43.673Z,25.48
2018-08-17T16:12:13.566Z,25.44
2018-08-17T16:14:42.683Z,25.38
2018-08-17T16:17:11.242Z,25.51
2018-08-17T16:19:39.829Z,25.40
2018-08-17T16:22:08.412Z,25.22
2018-08-17T16:24:36.984Z,25.42
2018-08-17T16:27:05.721Z,24.89
2018-08-17T16:29:34.304Z,25.36
2018-08-17T16:32:02.956Z,25.49
2018-08-17T16:34:31.465Z,25.19
2018-08-17T16:37:00.044Z,25.05
2018-08-17T16:39:28.628Z,25.08
2018-08-17T16:41:57.816Z,24.83
2018-08-17T16:44:26.442Z,24.88
2018-08-17T16:46:54.992Z,24.93
2018-08-17T16:49:23.560Z,24.71
2018-08-17T16:51:52.180Z,24.90
2018-08-17T16:54:20.759Z,24.29
2018-08-17T16:56:49.273Z,24.10
2018-08-17T16:59:17.847Z,24.25
2018-08-17T17:01:46.991Z,24.39
2018-08-17T17:04:15.549Z,24.17
2018-08-17T17:06:44.065Z,24.07
2018-08-17T17:09:12.680Z,23.96
2018-08-17T17:11:41.276Z,23.94
2018-08-17T17:14:09.859Z,23.86
2018-08-17T17:16:52.865Z,23.59
2018-08-17T17:19:22.492Z,24.01
2018-08-17T17:21:51.965Z,23.81
2018-08-17T17:24:20.968Z,24.17
2018-08-17T17:26:49.545Z,24.04
2018-08-17T17:29:18.064Z,23.84
2018-08-17T17:31:50.493Z,23.87
2018-08-17T17:34:19.005Z,23.76
2018-08-17T17:36:47.578Z,23.70
2018-08-17T17:39:16.351Z,23.92
2018-08-17T17:41:44.920Z,23.90
2018-08-17T17:44:13.465Z,23.92
2018-08-17T17:46:42.112Z,23.84
2018-08-17T17:49:11.088Z,23.92
2018-08-17T17:51:39.845Z,23.67
2018-08-17T17:54:08.487Z,23.57
2018-08-17T17:56:37.138Z,23.70
2018-08-17T17:59:11.071Z,23.66
2018-08-17T18:01:39.688Z,23.49
2018-08-17T18:04:08.261Z,23.63
2018-08-17T18:06:36.848Z,23.61
2018-08-17T18:09:06.260Z,23.51
2018-08-17T18:11:34.850Z,22.99
2018-08-17T18:14:03.399Z,22.73
2018-08-17T18:16:31.981Z,22.94
2018-08-17T18:19:00.559Z,22.68
2018-08-17T18:21:32.170Z,22.45
2018-08-17T18:24:06.008Z,22.50
2018-08-17T18:26:34.843Z,22.63
2018-08-17T18:29:03.483Z,22.34
2018-08-17T18:31:32.079Z,22.41
2018-08-17T18:34:00.604Z,22.26
2018-08-17T18:36:29.190Z,22.25
2018-08-17T18:38:58.199Z,22.12
2018-08-17T18:41:27.012Z,21.98
2018-08-17T18:43:55.580Z,22.00
2018-08-17T18:46:24.153Z,21.81
2018-08-17T18:48:52.688Z,21.94
2018-08-17T18:51:21.324Z,21.93
2018-08-17T18:53:49.912Z,21.88
2018-08-17T18:56:18.557Z,21.81
2018-08-17T18:58:47.091Z,21.77
2018-08-17T19:01:15.749Z,21.84
2018-08-17T19:03:44.325Z,21.90
2018-08-17T19:06:12.917Z,21.58
2018-08-17T19:08:41.449Z,21.57
2018-08-17T19:11:10.022Z,21.57
2018-08-17T19:13:38.742Z,21.60
2018-08-17T19:16:07.346Z,21.85
2018-08-17T19:18:35.871Z,21.84
2018-08-17T19:21:10.318Z,21.86
2018-08-17T19:23:38.943Z,21.81
2018-08-17T19:26:08.952Z,21.73
2018-08-17T19:28:37.681Z,21.61
2018-08-17T19:31:06.492Z,21.60
2018-08-17T19:33:35.074Z,21.19
2018-08-17T19:36:04.022Z,21.26
2018-08-17T19:38:42.773Z,21.22
2018-08-17T19:41:11.320Z,21.43
2018-08-17T19:43:39.954Z,21.23
2018-08-17T19:46:08.568Z,21.26
2018-08-17T19:48:37.097Z,21.12
2018-08-17T19:51:10.889Z,20.92
2018-08-17T19:53:39.635Z,20.85
2018-08-17T19:56:08.180Z,21.19
2018-08-17T19:58:36.811Z,21.23
2018-08-17T20:01:05.437Z,21.15
2018-08-17T20:03:34.027Z,21.07
2018-08-17T20:06:03.143Z,21.06
2018-08-17T20:08:31.925Z,21.14
2018-08-17T20:11:00.450Z,20.93
2018-08-17T20:13:29.069Z,20.96
2018-08-17T20:15:57.712Z,20.89
2018-08-17T20:18:26.264Z,20.58
2018-08-17T20:20:54.784Z,20.38
2018-08-17T20:23:23.411Z,20.59
2018-08-17T20:25:52.007Z,20.72
2018-08-17T20:28:20.645Z,20.81
2018-08-17T20:30:49.536Z,20.66
2018-08-17T20:33:27.093Z,20.59
2018-08-17T20:35:56.173Z,19.94
2018-08-17T20:38:24.998Z,20.29
2018-08-17T20:41:01.915Z,20.47
2018-08-17T20:43:34.440Z,20.36
2018-08-17T20:46:17.901Z,20.16
2018-08-17T20:48:51.180Z,19.86
2018-08-17T20:51:26.228Z,19.76
2018-08-17T20:54:01.878Z,19.62
2018-08-17T20:56:35.593Z,19.55
2018-08-17T20:59:11.224Z,19.31
2018-08-17T21:01:40.182Z,19.24
2018-08-17T21:04:16.715Z,19.35
2018-08-17T21:06:48.673Z,19.45
2018-08-17T21:09:19.101Z,19.47
2018-08-17T21:12:07.382Z,19.46
2018-08-17T21:14:36.974Z,19.44
2018-08-17T21:17:07.353Z,19.30
2018-08-17T21:19:40.769Z,19.17
2018-08-17T21:22:15.685Z,18.98
2018-08-17T21:24:47.274Z,19.00
2018-08-17T21:27:20.552Z,18.96
2018-08-17T21:29:53.568Z,19.09
2018-08-17T21:32:24.198Z,18.96
2018-08-17T21:34:54.701Z,18.99
2018-08-17T21:37:29.487Z,18.84
2018-08-17T21:39:59.023Z,18.83
2018-08-17T21:42:28.903Z,18.79
2018-08-17T21:44:58.272Z,18.76
2018-08-17T21:47:28.174Z,18.60
2018-08-17T21:50:05.263Z,18.60
2018-08-17T21:52:35.736Z,18.41
2018-08-17T21:55:06.843Z,18.28
2018-08-17T21:57:41.135Z,18.45
2018-08-17T22:00:33.923Z,18.20
2018-08-17T22:03:17.278Z,18.51
2018-08-17T22:05:51.368Z,18.53
2018-08-17T22:08:27.080Z,18.35
2018-08-17T22:11:04.177Z,18.58
2018-08-17T22:13:49.343Z,18.70
2018-08-17T22:16:32.258Z,18.69
2018-08-17T22:19:24.193Z,18.52
2018-08-17T22:22:04.371Z,18.24
2018-08-17T22:24:52.770Z,18.02
2018-08-17T22:27:37.968Z,18.14
2018-08-17T22:30:22.214Z,18.54
2018-08-17T22:33:07.983Z,18.59
2018-08-17T22:35:45.678Z,18.49
2018-08-17T22:38:32.430Z,18.33
2018-08-17T22:41:16.639Z,18.12
2018-08-17T22:43:59.446Z,18.28
2018-08-17T22:46:40.780Z,18.22
2018-08-17T22:49:32.243Z,18.28
2018-08-17T22:55:03.640Z,17.79
2018-08-17T22:57:39.819Z,17.69
2018-08-17T23:00:24.452Z,17.56
2018-08-17T23:03:13.670Z,17.33
2018-08-17T23:05:57.098Z,17.30
2018-08-17T23:08:40.215Z,17.34
2018-08-17T23:11:26.249Z,17.76
2018-08-17T23:14:06.301Z,17.81
2018-08-17T23:16:51.119Z,18.13
2018-08-17T23:19:35.976Z,17.74
2018-08-17T23:22:13.857Z,17.96
2018-08-17T23:24:52.528Z,17.44
2018-08-17T23:27:29.591Z,17.58
2018-08-17T23:30:07.746Z,17.69
2018-08-17T23:32:46.983Z,17.49
2018-08-17T23:35:22.043Z,17.35
2018-08-17T23:38:00.409Z,16.62
2018-08-17T23:40:41.090Z,16.67
2018-08-17T23:43:18.522Z,17.05
2018-08-17T23:45:57.267Z,17.02
2018-08-17T23:48:39.171Z,17.01
2018-08-17T23:51:17.110Z,16.82
2018-08-17T23:53:53.643Z,16.74
2018-08-17T23:56:31.032Z,16.70
2018-08-17T23:59:06.359Z,16.87
